createdAt,value
2022-11-02T00:00:41.486Z,6.43
2022-11-02T00:03:08.647Z,6.88
2022-11-02T00:05:35.659Z,6.53
2022-11-02T00:08:02.435Z,4.95
2022-11-02T00:10:29.986Z,9.60
2022-11-02T00:12:57.010Z,5.57
2022-11-02T00:15:27.282Z,9.27
2022-11-02T00:17:58.627Z,9.05
2022-11-02T00:20:26.400Z,7.18
2022-11-02T00:22:56.088Z,4.40
2022-11-02T00:25:24.705Z,7.47
2022-11-02T00:27:51.316Z,5.93
2022-11-02T00:30:18.206Z,6.72
2022-11-02T00:32:45.590Z,8.18
2022-11-02T00:35:12.409Z,7.95
2022-11-02T00:37:38.991Z,7.53
2022-11-02T00:40:06.062Z,7.78
2022-11-02T00:42:32.730Z,6.53
2022-11-02T00:44:59.232Z,6.85
2022-11-02T00:47:25.743Z,7.47
2022-11-02T00:49:52.420Z,6.60
2022-11-02T00:52:18.957Z,8.00
2022-11-02T00:54:45.476Z,7.93
2022-11-02T00:57:12.374Z,8.57
2022-11-02T00:59:38.896Z,11.98
2022-11-02T01:02:05.576Z,7.80
2022-11-02T01:04:32.238Z,8.88
2022-11-02T01:06:58.769Z,8.07
2022-11-02T01:09:25.551Z,8.13
2022-11-02T01:11:52.889Z,9.25
2022-11-02T01:14:19.472Z,9.50
2022-11-02T01:19:17.557Z,7.60
2022-11-02T01:21:44.136Z,8.00
2022-11-02T01:24:10.750Z,6.20
2022-11-02T01:26:37.411Z,7.40
2022-11-02T01:29:04.069Z,8.60
2022-11-02T01:31:30.587Z,5.53
2022-11-02T01:33:57.091Z,7.78
2022-11-02T01:36:23.954Z,5.13
2022-11-02T01:38:50.627Z,6.30
2022-11-02T01:41:18.277Z,7.18
2022-11-02T01:43:46.783Z,7.63
2022-11-02T01:46:13.243Z,10.43
2022-11-02T01:48:47.671Z,7.88
2022-11-02T01:51:28.616Z,6.00
2022-11-02T01:54:00.613Z,8.30
2022-11-02T01:56:31.256Z,6.60
2022-11-02T01:59:01.789Z,6.60
2022-11-02T02:01:29.254Z,8.90
2022-11-02T02:03:57.142Z,9.98
2022-11-02T02:06:26.228Z,5.80
2022-11-02T02:08:55.279Z,5.28
2022-11-02T02:11:45.215Z,9.90
2022-11-02T02:14:15.271Z,6.40
2022-11-02T02:16:59.569Z,5.32
2022-11-02T02:19:29.452Z,7.15
2022-11-02T02:22:35.782Z,8.00
2022-11-02T02:25:29.946Z,8.10
2022-11-02T02:28:07.221Z,4.88
2022-11-02T02:30:50.180Z,4.45
2022-11-02T02:33:55.025Z,7.57
2022-11-02T02:36:29.487Z,11.60
2022-11-02T02:39:06.514Z,6.15
2022-11-02T02:41:41.753Z,8.50
2022-11-02T02:44:16.215Z,7.25
2022-11-02T02:46:53.594Z,5.38
2022-11-02T02:49:29.580Z,3.95
2022-11-02T02:51:56.956Z,7.20
2022-11-02T02:54:30.647Z,5.55
2022-11-02T02:57:02.264Z,4.63
2022-11-02T02:59:40.588Z,5.30
2022-11-02T03:02:12.773Z,5.40
2022-11-02T03:04:39.326Z,7.03
2022-11-02T03:07:05.911Z,6.05
2022-11-02T03:09:39.784Z,5.43
2022-11-02T03:12:37.022Z,9.02
2022-11-02T03:15:13.074Z,5.85
2022-11-02T03:17:48.388Z,4.72
2022-11-02T03:20:32.943Z,6.00
2022-11-02T03:23:12.649Z,6.07
2022-11-02T03:25:55.709Z,5.05
2022-11-02T03:28:39.984Z,4.70
2022-11-02T03:31:25.797Z,5.45
2022-11-02T03:34:02.381Z,4.65
2022-11-02T03:36:36.716Z,7.53
2022-11-02T03:39:11.744Z,5.60
2022-11-02T03:41:41.587Z,3.90
2022-11-02T03:44:14.534Z,11.68
2022-11-02T03:46:43.803Z,6.00
2022-11-02T03:49:15.555Z,4.35
2022-11-02T03:51:45.227Z,5.95
2022-11-02T03:54:27.668Z,5.50
2022-11-02T03:56:59.397Z,4.15
2022-11-02T03:59:25.909Z,4.47
2022-11-02T04:01:52.862Z,7.55
2022-11-02T04:04:19.516Z,4.63
2022-11-02T04:06:48.824Z,5.88
2022-11-02T04:09:15.574Z,6.13
2022-11-02T04:12:00.636Z,6.15
2022-11-02T04:14:39.069Z,5.90
2022-11-02T04:17:25.296Z,5.07
2022-11-02T04:19:52.015Z,9.90
2022-11-02T04:22:37.439Z,5.97
2022-11-02T04:25:18.681Z,5.22
2022-11-02T04:27:48.244Z,5.57
2022-11-02T04:30:17.042Z,4.00
2022-11-02T04:33:04.707Z,5.85
2022-11-02T04:35:31.736Z,5.00
2022-11-02T04:38:17.515Z,5.07
2022-11-02T04:40:44.515Z,5.85
2022-11-02T04:43:11.102Z,5.60
2022-11-02T04:45:37.957Z,7.07
2022-11-02T04:48:09.218Z,7.40
2022-11-02T04:50:36.573Z,4.70
2022-11-02T04:53:04.935Z,5.20
2022-11-02T04:55:31.819Z,4.63
2022-11-02T04:57:58.338Z,2.92
2022-11-02T05:00:24.875Z,6.28
2022-11-02T05:02:51.603Z,3.45
2022-11-02T05:05:18.547Z,4.15
2022-11-02T05:07:45.180Z,3.75
2022-11-02T05:10:11.735Z,3.05
2022-11-02T05:12:38.258Z,6.05
2022-11-02T05:15:05.364Z,3.33
2022-11-02T05:17:32.013Z,4.32
2022-11-02T05:19:58.674Z,5.78
2022-11-02T05:22:25.176Z,3.72
2022-11-02T05:24:51.715Z,6.18
2022-11-02T05:27:18.241Z,6.25
2022-11-02T05:29:44.767Z,5.93
2022-11-02T05:32:11.555Z,3.20
2022-11-02T05:34:38.102Z,3.33
2022-11-02T05:37:04.785Z,2.95
2022-11-02T05:39:31.343Z,6.10
2022-11-02T05:41:57.898Z,3.20
2022-11-02T05:44:24.405Z,5.78
2022-11-02T05:46:51.028Z,3.78
2022-11-02T05:49:17.525Z,3.70
2022-11-02T05:51:44.502Z,4.35
2022-11-02T05:54:11.120Z,4.50
2022-11-02T05:56:37.628Z,4.88
2022-11-02T05:59:04.255Z,4.03
2022-11-02T06:01:31.258Z,4.72
2022-11-02T06:03:57.852Z,3.90
2022-11-02T06:06:24.367Z,3.70
2022-11-02T06:08:50.932Z,4.85
2022-11-02T06:11:17.457Z,3.00
2022-11-02T06:13:44.018Z,3.95
2022-11-02T06:16:12.546Z,3.83
2022-11-02T06:18:39.470Z,6.90
2022-11-02T06:21:06.365Z,4.70
2022-11-02T06:23:33.184Z,6.05
2022-11-02T06:26:00.656Z,3.70
2022-11-02T06:28:28.025Z,4.10
2022-11-02T06:30:54.636Z,4.40
2022-11-02T06:33:21.320Z,4.07
2022-11-02T06:35:49.749Z,5.63
2022-11-02T06:38:16.753Z,5.40
2022-11-02T06:40:43.589Z,8.38
2022-11-02T06:43:16.716Z,5.40
2022-11-02T06:45:44.608Z,4.03
2022-11-02T06:48:11.145Z,6.07
2022-11-02T06:50:38.470Z,5.50
2022-11-02T06:53:05.792Z,7.70
2022-11-02T06:55:32.627Z,4.38
2022-11-02T06:57:59.127Z,3.38
2022-11-02T07:00:25.818Z,4.45
2022-11-02T07:03:07.523Z,5.88
2022-11-02T07:05:36.328Z,4.95
2022-11-02T07:08:03.456Z,8.52
2022-11-02T07:10:30.393Z,3.95
2022-11-02T07:12:58.067Z,3.83
2022-11-02T07:15:26.144Z,7.60
2022-11-02T07:17:53.078Z,8.07
2022-11-02T07:20:20.306Z,5.57
2022-11-02T07:22:55.102Z,9.70
2022-11-02T07:25:22.162Z,9.73
2022-11-02T07:27:48.712Z,7.75
2022-11-02T07:30:15.539Z,4.90
2022-11-02T07:32:43.516Z,6.15
2022-11-02T07:35:11.792Z,8.82
2022-11-02T07:37:38.842Z,10.60
2022-11-02T07:40:07.167Z,8.73
2022-11-02T07:42:34.057Z,8.30
2022-11-02T07:45:00.592Z,6.85
2022-11-02T07:47:27.498Z,4.78
2022-11-02T07:49:54.084Z,8.15
2022-11-02T07:52:21.144Z,5.78
2022-11-02T07:54:47.707Z,7.22
2022-11-02T07:57:14.212Z,5.93
2022-11-02T07:59:40.785Z,5.90
2022-11-02T08:02:13.475Z,5.53
2022-11-02T08:04:43.876Z,5.15
2022-11-02T08:07:12.648Z,5.90
2022-11-02T08:09:39.377Z,3.83
2022-11-02T08:12:06.280Z,5.28
2022-11-02T08:14:32.874Z,6.00
2022-11-02T08:16:59.420Z,7.25
2022-11-02T08:19:25.963Z,5.40
2022-11-02T08:21:53.011Z,8.38
2022-11-02T08:24:19.508Z,4.25
2022-11-02T08:26:47.527Z,5.43
2022-11-02T08:29:16.305Z,6.57
2022-11-02T08:31:42.827Z,6.53
2022-11-02T08:34:11.971Z,6.30
2022-11-02T08:36:38.840Z,7.45
2022-11-02T08:39:05.479Z,5.90
2022-11-02T08:41:32.063Z,9.00
2022-11-02T08:43:59.125Z,9.45
2022-11-02T08:46:25.782Z,7.65
2022-11-02T08:48:52.305Z,5.03
2022-11-02T08:51:18.972Z,7.80
2022-11-02T08:53:51.155Z,6.88
2022-11-02T08:56:18.099Z,8.98
2022-11-02T08:58:44.741Z,7.13
2022-11-02T09:01:11.335Z,5.55
2022-11-02T09:03:37.887Z,5.15
2022-11-02T09:06:04.570Z,9.15
2022-11-02T09:08:31.218Z,5.60
2022-11-02T09:11:00.749Z,7.85
2022-11-02T09:13:28.012Z,9.52
2022-11-02T09:15:56.968Z,5.63
2022-11-02T09:18:23.773Z,9.10
2022-11-02T09:20:51.417Z,9.10
2022-11-02T09:23:20.428Z,8.85
2022-11-02T09:25:47.348Z,6.80
2022-11-02T09:28:15.606Z,7.55
2022-11-02T09:30:42.683Z,7.70
2022-11-02T09:33:10.265Z,9.00
2022-11-02T09:35:39.475Z,7.60
2022-11-02T09:38:06.706Z,7.18
2022-11-02T09:40:41.599Z,10.57
2022-11-02T09:43:32.721Z,6.75
2022-11-02T09:46:24.310Z,8.95
2022-11-02T09:48:55.398Z,7.80
2022-11-02T09:51:26.857Z,10.18
2022-11-02T09:54:19.642Z,7.47
2022-11-02T09:56:47.829Z,7.90
2022-11-02T09:59:16.051Z,8.10
2022-11-02T10:01:49.056Z,7.93
2022-11-02T10:04:21.460Z,6.95
2022-11-02T10:07:03.840Z,11.40
2022-11-02T10:09:53.864Z,8.43
2022-11-02T10:12:38.497Z,11.65
2022-11-02T10:15:08.404Z,7.60
2022-11-02T10:17:38.551Z,6.40
2022-11-02T10:20:24.585Z,11.38
2022-11-02T10:22:52.942Z,8.93
2022-11-02T10:25:19.572Z,7.03
2022-11-02T10:27:50.066Z,6.85
2022-11-02T10:30:19.789Z,4.18
2022-11-02T10:32:52.556Z,8.52
2022-11-02T10:35:57.282Z,8.85
2022-11-02T10:38:45.273Z,7.55
2022-11-02T10:41:24.313Z,5.88
2022-11-02T10:44:12.823Z,5.97
2022-11-02T10:46:51.521Z,5.85
2022-11-02T10:49:21.097Z,5.10
2022-11-02T10:51:47.717Z,13.82
2022-11-02T10:54:19.592Z,6.60
2022-11-02T10:56:50.703Z,3.97
2022-11-02T10:59:20.243Z,5.22
2022-11-02T11:01:59.189Z,3.72
2022-11-02T11:04:31.757Z,3.20
2022-11-02T11:07:04.393Z,4.40
2022-11-02T11:09:42.851Z,6.45
2022-11-02T11:12:22.290Z,4.45
2022-11-02T11:20:36.161Z,5.57
2022-11-02T11:23:15.680Z,4.88
2022-11-02T11:25:43.001Z,5.45
2022-11-02T11:28:25.173Z,3.33
2022-11-02T11:31:28.159Z,8.10
2022-11-02T11:36:31.233Z,6.85
2022-11-02T11:39:01.492Z,7.47
2022-11-02T11:41:31.583Z,11.25
2022-11-02T11:43:58.786Z,10.98
2022-11-02T11:46:40.479Z,11.20
2022-11-02T11:50:08.650Z,8.77
2022-11-02T11:52:29.894Z,9.57
2022-11-02T11:55:02.952Z,6.10
2022-11-02T11:57:34.602Z,4.40
2022-11-02T12:00:05.205Z,7.95
2022-11-02T12:05:17.088Z,4.40
2022-11-02T12:08:16.449Z,7.78
2022-11-02T12:10:56.559Z,6.60
2022-11-02T12:13:45.585Z,5.00
2022-11-02T12:16:24.288Z,6.50
2022-11-02T12:19:29.734Z,7.72
2022-11-02T12:22:05.329Z,4.55
2022-11-02T12:25:02.488Z,6.55
2022-11-02T12:27:56.450Z,6.28
2022-11-02T12:30:50.186Z,3.85
2022-11-02T12:33:25.669Z,7.43
2022-11-02T12:36:07.520Z,5.50
2022-11-02T12:38:46.728Z,6.97
2022-11-02T12:41:23.452Z,4.13
2022-11-02T12:43:56.779Z,6.80
2022-11-02T12:46:59.805Z,6.32
2022-11-02T12:49:40.490Z,5.82
2022-11-02T12:52:09.883Z,6.63
2022-11-02T12:54:46.120Z,3.92
2022-11-02T12:57:15.995Z,5.78
2022-11-02T12:59:44.799Z,4.05
2022-11-02T13:02:30.063Z,4.30
2022-11-02T13:05:02.622Z,8.43
2022-11-02T13:07:37.113Z,5.32
2022-11-02T13:10:30.521Z,13.50
2022-11-02T13:13:01.748Z,6.55
2022-11-02T13:15:31.942Z,5.53
2022-11-02T13:18:04.280Z,4.57
2022-11-02T13:20:40.039Z,5.70
2022-11-02T13:23:25.397Z,6.45
2022-11-02T13:25:57.736Z,6.38
2022-11-02T13:28:48.726Z,3.60
2022-11-02T13:31:28.589Z,3.60
2022-11-02T13:34:00.246Z,4.10
2022-11-02T13:36:27.301Z,6.05
2022-11-02T13:39:02.090Z,5.57
2022-11-02T13:41:48.439Z,3.10
2022-11-02T13:44:29.858Z,5.32
2022-11-02T13:47:25.100Z,5.25
2022-11-02T13:49:53.378Z,4.07
2022-11-02T13:52:31.801Z,6.38
2022-11-02T13:55:02.687Z,7.20
2022-11-02T13:57:40.739Z,3.25
2022-11-02T14:00:28.154Z,3.28
2022-11-02T14:03:02.108Z,3.85
2022-11-02T14:05:34.581Z,5.97
2022-11-02T14:08:08.198Z,3.97
2022-11-02T14:10:40.741Z,3.35
2022-11-02T14:13:14.083Z,5.13
2022-11-02T14:15:42.556Z,4.55
2022-11-02T14:18:09.263Z,5.15
2022-11-02T14:20:38.895Z,5.55
2022-11-02T14:23:11.827Z,4.80
2022-11-02T14:25:58.432Z,4.13
2022-11-02T14:28:52.035Z,5.85
2022-11-02T14:31:18.685Z,4.63
2022-11-02T14:34:15.119Z,6.07
2022-11-02T14:37:20.274Z,4.68
2022-11-02T14:40:00.831Z,4.82
2022-11-02T14:42:50.380Z,4.65
2022-11-02T14:45:22.072Z,3.58
2022-11-02T14:47:48.841Z,4.80
2022-11-02T14:50:21.031Z,4.88
2022-11-02T14:53:05.902Z,5.07
2022-11-02T14:55:35.812Z,5.28
2022-11-02T14:58:16.192Z,4.13
2022-11-02T15:00:48.743Z,5.20
2022-11-02T15:03:24.451Z,4.00
2022-11-02T15:06:22.768Z,6.32
2022-11-02T15:08:51.173Z,8.60
2022-11-02T15:11:49.273Z,7.93
2022-11-02T15:14:37.958Z,4.75
2022-11-02T15:17:10.600Z,3.78
2022-11-02T15:19:40.614Z,2.97
2022-11-02T15:22:28.828Z,5.00
2022-11-02T15:24:58.807Z,5.00
2022-11-02T15:27:25.726Z,5.43
2022-11-02T15:29:53.164Z,7.97
2022-11-02T15:32:25.443Z,4.82
2022-11-02T15:34:54.902Z,3.38
2022-11-02T15:37:27.207Z,4.97
2022-11-02T15:39:59.438Z,5.20
2022-11-02T15:42:26.038Z,5.35
2022-11-02T15:45:05.430Z,6.22
2022-11-02T15:47:47.951Z,5.10
2022-11-02T15:50:20.917Z,3.10
2022-11-02T15:53:21.855Z,4.22
2022-11-02T15:56:08.615Z,3.92
2022-11-02T16:01:22.643Z,4.80
2022-11-02T16:03:58.963Z,9.35
2022-11-02T16:06:41.746Z,4.18
2022-11-02T16:09:34.106Z,5.65
2022-11-02T16:12:02.888Z,4.10
2022-11-02T16:14:32.459Z,4.88
2022-11-02T16:16:59.460Z,6.38
2022-11-02T16:19:26.101Z,6.70
2022-11-02T16:21:54.968Z,6.38
2022-11-02T16:24:25.222Z,6.43
2022-11-02T16:26:52.140Z,4.60
2022-11-02T16:29:29.970Z,5.38
2022-11-02T16:31:56.758Z,7.20
2022-11-02T16:34:28.439Z,6.57
2022-11-02T16:36:55.476Z,7.20
2022-11-02T16:39:28.007Z,9.00
2022-11-02T16:41:57.475Z,9.13
2022-11-02T16:44:30.160Z,8.38
2022-11-02T16:46:59.702Z,5.82
2022-11-02T16:49:28.255Z,10.15
2022-11-02T16:52:20.913Z,5.32
2022-11-02T16:54:47.683Z,6.63
2022-11-02T16:57:34.536Z,6.07
2022-11-02T17:00:11.404Z,7.03
2022-11-02T17:02:42.997Z,6.43
2022-11-02T17:05:17.395Z,7.63
2022-11-02T17:07:50.421Z,6.63
2022-11-02T17:10:24.562Z,7.68
2022-11-02T17:12:51.217Z,7.10
2022-11-02T17:15:23.571Z,7.28
2022-11-02T17:17:50.483Z,6.40
2022-11-02T17:20:21.046Z,11.10
2022-11-02T17:22:53.483Z,7.03
2022-11-02T17:25:32.104Z,9.50
2022-11-02T17:28:00.831Z,6.50
2022-11-02T17:30:30.392Z,8.45
2022-11-02T17:32:58.173Z,7.05
2022-11-02T17:35:27.483Z,5.85
2022-11-02T17:37:54.467Z,8.02
2022-11-02T17:40:22.127Z,12.40
2022-11-02T17:43:02.187Z,10.20
2022-11-02T17:45:31.307Z,8.95
2022-11-02T17:47:59.440Z,9.18
2022-11-02T17:50:27.981Z,7.95
2022-11-02T17:52:55.272Z,10.57
2022-11-02T17:55:24.520Z,10.93
2022-11-02T17:57:54.086Z,10.50
2022-11-02T18:00:21.207Z,13.50
2022-11-02T18:02:58.192Z,7.70
2022-11-02T18:05:29.125Z,7.10
2022-11-02T18:07:57.634Z,9.93
2022-11-02T18:10:27.405Z,7.88
2022-11-02T18:12:54.015Z,9.00
2022-11-02T18:15:27.092Z,11.95
2022-11-02T18:17:54.985Z,7.38
2022-11-02T18:20:22.135Z,11.85
2022-11-02T18:22:48.732Z,10.27
2022-11-02T18:25:17.972Z,10.70
2022-11-02T18:27:45.920Z,11.32
2022-11-02T18:30:15.797Z,13.00
2022-11-02T18:32:43.928Z,8.77
2022-11-02T18:35:16.878Z,10.23
2022-11-02T18:37:43.902Z,7.38
2022-11-02T18:40:12.622Z,12.13
2022-11-02T18:42:40.953Z,9.27
2022-11-02T18:45:09.450Z,11.40
2022-11-02T18:47:36.355Z,10.70
2022-11-02T18:50:04.113Z,9.13
2022-11-02T18:52:32.378Z,11.43
2022-11-02T18:55:04.911Z,12.32
2022-11-02T18:57:32.672Z,13.18
2022-11-02T19:00:00.691Z,10.90
2022-11-02T19:02:27.353Z,9.68
2022-11-02T19:04:53.906Z,12.77
2022-11-02T19:07:38.740Z,11.55
2022-11-02T19:10:05.849Z,15.43
2022-11-02T19:12:32.675Z,12.43
2022-11-02T19:14:59.212Z,12.27
2022-11-02T19:17:26.722Z,12.45
2022-11-02T19:19:53.745Z,12.00
2022-11-02T19:22:23.169Z,13.30
2022-11-02T19:24:49.841Z,11.48
2022-11-02T19:27:25.003Z,12.63
2022-11-02T19:29:52.220Z,12.05
2022-11-02T19:32:19.276Z,11.35
2022-11-02T19:34:46.029Z,15.10
2022-11-02T19:37:13.039Z,14.45
2022-11-02T19:39:39.874Z,10.95
2022-11-02T19:42:07.500Z,11.57
2022-11-02T19:44:38.366Z,15.57
2022-11-02T19:47:08.884Z,9.88
2022-11-02T19:49:35.375Z,12.45
2022-11-02T19:52:01.860Z,13.77
2022-11-02T19:54:28.393Z,11.07
2022-11-02T19:56:54.925Z,11.35
2022-11-02T19:59:22.528Z,14.05
2022-11-02T20:01:50.730Z,13.95
2022-11-02T20:04:17.803Z,15.80
2022-11-02T20:06:44.842Z,15.55
2022-11-02T20:09:19.053Z,9.30
2022-11-02T20:11:47.137Z,11.02
2022-11-02T20:14:15.774Z,12.93
2022-11-02T20:16:42.844Z,12.15
2022-11-02T20:19:10.137Z,12.30
2022-11-02T20:21:42.785Z,15.07
2022-11-02T20:24:10.814Z,13.75
2022-11-02T20:26:39.797Z,12.73
2022-11-02T20:29:07.051Z,13.55
2022-11-02T20:31:36.999Z,14.18
2022-11-02T20:34:04.927Z,14.77
2022-11-02T20:36:31.564Z,12.45
2022-11-02T20:38:58.715Z,11.13
2022-11-02T20:41:26.169Z,12.43
2022-11-02T20:43:55.393Z,14.88
2022-11-02T20:46:36.950Z,12.95
2022-11-02T20:49:19.906Z,11.10
2022-11-02T20:51:52.593Z,12.90
2022-11-02T20:54:19.938Z,11.20
2022-11-02T20:56:47.017Z,11.25
2022-11-02T20:59:13.731Z,14.38
2022-11-02T21:01:41.206Z,11.70
2022-11-02T21:04:07.812Z,13.60
2022-11-02T21:06:34.352Z,9.15
2022-11-02T21:09:09.012Z,14.07
2022-11-02T21:11:57.435Z,13.85
2022-11-02T21:14:24.563Z,11.30
2022-11-02T21:16:51.080Z,16.40
2022-11-02T21:19:17.673Z,13.52
2022-11-02T21:21:45.094Z,12.80
2022-11-02T21:24:11.732Z,14.90
2022-11-02T21:26:38.272Z,13.68
2022-11-02T21:29:04.944Z,17.98
2022-11-02T21:31:31.479Z,14.82
2022-11-02T21:33:58.009Z,13.30
2022-11-02T21:36:25.157Z,12.38
2022-11-02T21:38:51.830Z,16.42
2022-11-02T21:41:21.159Z,16.88
2022-11-02T21:43:51.833Z,13.82
2022-11-02T21:46:19.842Z,12.40
2022-11-02T21:48:46.734Z,12.85
2022-11-02T21:51:18.644Z,13.65
2022-11-02T21:53:46.937Z,13.52
2022-11-02T21:56:15.977Z,13.45
2022-11-02T21:58:45.928Z,11.68
2022-11-02T22:01:45.053Z,12.73
2022-11-02T22:04:14.864Z,12.05
2022-11-02T22:06:42.323Z,10.60
2022-11-02T22:09:11.604Z,10.48
2022-11-02T22:11:38.712Z,18.02
2022-11-02T22:14:05.604Z,11.88
2022-11-02T22:16:37.663Z,11.68
2022-11-02T22:19:12.365Z,11.18
2022-11-02T22:21:44.296Z,10.90
2022-11-02T22:24:11.619Z,14.53
2022-11-02T22:26:39.563Z,10.90
2022-11-02T22:29:06.634Z,12.13
2022-11-02T22:31:35.557Z,11.43
2022-11-02T22:34:04.069Z,14.52
2022-11-02T22:36:32.955Z,9.48
2022-11-02T22:39:00.983Z,12.40
2022-11-02T22:41:35.628Z,10.50
2022-11-02T22:44:10.265Z,13.32
2022-11-02T22:46:39.326Z,12.07
2022-11-02T22:49:07.544Z,12.20
2022-11-02T22:51:36.947Z,13.98
2022-11-02T22:54:05.356Z,14.82
2022-11-02T22:56:32.620Z,11.13
2022-11-02T22:58:59.774Z,11.55
2022-11-02T23:01:28.080Z,13.38
2022-11-02T23:03:54.937Z,12.98
2022-11-02T23:06:22.607Z,15.02
2022-11-02T23:08:51.520Z,11.73
2022-11-02T23:11:23.693Z,11.27
2022-11-02T23:13:56.455Z,11.18
2022-11-02T23:16:25.915Z,10.05
2022-11-02T23:19:29.210Z,11.15
2022-11-02T23:22:24.790Z,12.75
2022-11-02T23:25:11.361Z,12.32
2022-11-02T23:27:59.590Z,11.02
2022-11-02T23:30:47.911Z,12.48
2022-11-02T23:33:15.227Z,11.85
2022-11-02T23:36:00.746Z,12.70
2022-11-02T23:38:45.821Z,14.10
2022-11-02T23:41:12.488Z,10.52
2022-11-02T23:43:39.091Z,9.73
2022-11-02T23:46:05.601Z,11.77
2022-11-02T23:48:32.125Z,12.52
2022-11-02T23:51:17.763Z,11.73
2022-11-02T23:54:03.088Z,12.13
2022-11-02T23:56:45.133Z,14.63
2022-11-02T23:59:17.284Z,12.35
